Time,TemperatureF,DewpointF,PressureIn,WindDirection,WindDirectionDegrees,WindSpeedMPH,WindSpeedGustMPH,Humidity,HourlyPrecipIn,Conditions,Clouds,dailyrainin,SolarRadiationWatts/m^2,SoftwareType,DateUTC
2013-03-05 00:00:00,31.8,28.4,30.00,ENE,73,7.0,7.0,87,0.00,OVC,,0.00,0.0,WeatherDisplay:10.37,2013-03-05 06:00:00,
2013-03-05 00:05:00,31.7,28.6,30.00,ENE,71,9.2,9.2,88,0.00,OVC,,0.00,0.0,WeatherDisplay:10.37,2013-03-05 06:05:00,
2013-03-05 00:10:00,31.7,28.6,29.99,East,81,9.2,9.2,88,0.00,OVC,,0.00,0.0,WeatherDisplay:10.37,2013-03-05 06:10:00,
2013-03-05 00:15:00,31.7,28.6,29.99,ENE,78,9.2,9.2,88,0.00,OVC,,0.00,0.0,WeatherDisplay:10.37,2013-03-05 06:15:00,
2013-03-05 00:20:00,31.7,28.6,29.99,ENE,74,8.1,8.1,88,0.00,OVC,,0.00,0.0,WeatherDisplay:10.37,2013-03-05 06:20:00,
2013-03-05 00:25:00,31.7,28.6,29.99,ENE,76,11.5,11.5,88,0.00,OVC,,0.00,0.0,WeatherDisplay:10.37,2013-03-05 06:25:00,
2013-03-05 00:31:00,31.7,28.8,29.99,ENE,70,11.5,11.5,89,0.00,OVC,,0.00,0.0,WeatherDisplay:10.37,2013-03-05 06:31:00,
2013-03-05 00:36:00,31.7,28.8,29.98,ENE,73,9.0,9.0,89,0.00,OVC,,0.00,0.0,WeatherDisplay:10.37,2013-03-05 06:36:00,
2013-03-05 00:41:00,31.7,28.8,29.98,ENE,65,10.4,10.4,89,0.00,OVC,,0.00,0.0,WeatherDisplay:10.37,2013-03-05 06:41:00,
2013-03-05 00:46:00,31.7,28.8,29.98,ENE,78,10.0,10.0,89,0.00,OVC,,0.00,0.0,WeatherDisplay:10.37,2013-03-05 06:46:00,
2013-03-05 00:51:00,31.8,28.9,29.98,ENE,72,10.4,10.4,89,0.00,OVC,,0.00,0.0,WeatherDisplay:10.37,2013-03-05 06:51:00,
2013-03-05 00:56:00,31.8,28.9,29.98,East,86,10.4,10.4,89,0.00,OVC,,0.00,0.0,WeatherDisplay:10.37,2013-03-05 06:56:00,
2013-03-05 01:01:00,31.8,28.9,29.98,East,80,9.2,9.2,89,0.00,OVC,,0.00,0.0,WeatherDisplay:10.37,2013-03-05 07:01:00,
2013-03-05 01:06:00,31.9,29.0,29.97,ENE,76,10.4,10.4,89,0.00,OVC,,0.00,0.0,WeatherDisplay:10.37,2013-03-05 07:06:00,
2013-03-05 01:11:00,31.9,29.0,29.97,ENE,76,11.5,11.5,89,0.00,OVC,,0.00,0.0,WeatherDisplay:10.37,2013-03-05 07:11:00,
2013-03-05 01:16:00,31.9,29.0,29.97,East,84,11.5,11.5,89,0.00,OVC,,0.00,0.0,WeatherDisplay:10.37,2013-03-05 07:16:00,
2013-03-05 01:21:00,31.9,29.0,29.97,ENE,75,11.5,11.5,89,0.00,OVC,,0.00,0.0,WeatherDisplay:10.37,2013-03-05 07:21:00,
2013-03-05 01:26:00,31.9,29.0,29.97,ENE,60,9.2,9.2,89,0.00,OVC,,0.00,0.0,WeatherDisplay:10.37,2013-03-05 07:26:00,
2013-03-05 01:31:00,31.8,29.2,29.97,ENE,76,11.5,11.5,90,0.00,OVC,,0.00,0.0,WeatherDisplay:10.37,2013-03-05 07:31:00,
2013-03-05 01:36:00,31.8,29.2,29.97,NE,55,11.5,11.5,90,0.00,OVC,,0.00,0.0,WeatherDisplay:10.37,2013-03-05 07:36:00,
2013-03-05 01:41:00,31.8,29.2,29.97,ENE,60,12.7,12.7,90,0.00,OVC,,0.00,0.0,WeatherDisplay:10.37,2013-03-05 07:41:00,
2013-03-05 01:46:00,31.8,29.2,29.97,ENE,76,11.5,11.5,90,0.00,OVC,,0.00,0.0,WeatherDisplay:10.37,2013-03-05 07:46:00,
2013-03-05 01:51:00,31.7,29.1,29.97,East,81,11.5,11.5,90,0.00,OVC,,0.00,0.0,WeatherDisplay:10.37,2013-03-05 07:51:00,
2013-03-05 01:56:00,31.7,29.1,29.96,East,90,11.5,11.5,90,0.00,OVC,,0.00,0.0,WeatherDisplay:10.37,2013-03-05 07:56:00,
2013-03-05 02:01:00,31.7,29.1,29.96,East,79,9.2,9.2,90,0.00,OVC,,0.00,0.0,WeatherDisplay:10.37,2013-03-05 08:01:00,
2013-03-05 02:06:00,31.8,29.2,29.95,East,82,11.5,11.5,90,0.00,OVC,,0.00,0.0,WeatherDisplay:10.37,2013-03-05 08:06:00,
2013-03-05 02:11:00,31.8,29.2,29.95,East,81,10.4,10.4,90,0.00,OVC,,0.00,0.0,WeatherDisplay:10.37,2013-03-05 08:11:00,
2013-03-05 02:16:00,31.8,29.5,29.95,ENE,68,12.7,12.7,91,0.00,OVC,,0.00,0.0,WeatherDisplay:10.37,2013-03-05 08:16:00,
2013-03-05 02:21:00,31.7,29.1,29.95,East,83,12.7,12.7,90,0.00,OVC,,0.00,0.0,WeatherDisplay:10.37,2013-03-05 08:21:00,
2013-03-05 02:26:00,31.8,29.5,29.95,ENE,65,10.0,10.0,91,0.00,OVC,,0.00,0.0,WeatherDisplay:10.37,2013-03-05 08:26:00,
2013-03-05 02:31:00,31.7,29.4,29.94,ENE,77,11.0,11.0,91,0.00,OVC,,0.00,0.0,WeatherDisplay:10.37,2013-03-05 08:31:00,
2013-03-05 02:36:00,31.7,29.4,29.94,ENE,69,11.5,11.5,91,0.00,OVC,,0.00,0.0,WeatherDisplay:10.37,2013-03-05 08:36:00,
2013-03-05 02:41:00,31.7,29.4,29.94,ENE,78,11.5,11.5,91,0.00,OVC,,0.00,0.0,WeatherDisplay:10.37,2013-03-05 08:41:00,
2013-03-05 02:46:00,31.7,29.4,29.94,ENE,78,10.4,10.4,91,0.00,OVC,,0.00,0.0,WeatherDisplay:10.37,2013-03-05 08:46:00,
2013-03-05 02:51:00,31.7,29.4,29.94,ENE,71,9.0,9.0,91,0.00,OVC,,0.00,0.0,WeatherDisplay:10.37,2013-03-05 08:51:00,
2013-03-05 02:56:00,31.7,29.4,29.93,ENE,74,12.7,12.7,91,0.00,OVC,,0.00,0.0,WeatherDisplay:10.37,2013-03-05 08:56:00,
2013-03-05 03:01:00,31.7,29.4,29.93,ENE,65,12.7,12.7,91,0.00,OVC,,0.00,0.0,WeatherDisplay:10.37,2013-03-05 09:01:00,
2013-03-05 03:06:00,31.7,29.4,29.93,ENE,69,11.5,11.5,91,0.00,OVC,,0.00,0.0,WeatherDisplay:10.37,2013-03-05 09:06:00,
2013-03-05 03:11:00,31.8,29.5,29.92,ENE,65,12.7,12.7,91,0.00,OVC,,0.00,0.0,WeatherDisplay:10.37,2013-03-05 09:11:00,
2013-03-05 03:16:00,31.8,29.5,29.92,ENE,71,11.5,11.5,91,0.00,OVC,,0.00,0.0,WeatherDisplay:10.37,2013-03-05 09:16:00,
2013-03-05 03:21:00,31.7,29.4,29.92,ENE,74,11.5,11.5,91,0.00,OVC,,0.00,0.0,WeatherDisplay:10.37,2013-03-05 09:21:00,
2013-03-05 03:26:00,31.7,29.4,29.92,ENE,69,12.7,12.7,91,0.00,OVC,,0.00,0.0,WeatherDisplay:10.37,2013-03-05 09:26:00,
2013-03-05 03:31:00,31.7,29.4,29.92,ENE,65,11.5,11.5,91,0.00,OVC,,0.00,0.0,WeatherDisplay:10.37,2013-03-05 09:31:00,
2013-03-05 03:36:00,31.7,29.4,29.92,ENE,78,10.4,10.4,91,0.00,OVC,,0.00,0.0,WeatherDisplay:10.37,2013-03-05 09:36:00,
2013-03-05 03:41:00,31.7,29.4,29.92,East,82,10.4,10.4,91,0.00,OVC,,0.00,0.0,WeatherDisplay:10.37,2013-03-05 09:41:00,
2013-03-05 03:46:00,31.7,29.4,29.91,East,84,12.7,12.7,91,0.00,OVC,,0.00,0.0,WeatherDisplay:10.37,2013-03-05 09:46:00,
2013-03-05 03:51:00,31.7,29.4,29.91,ENE,69,11.5,11.5,91,0.00,OVC,,0.00,0.0,WeatherDisplay:10.37,2013-03-05 09:51:00,
2013-03-05 03:56:00,31.7,29.4,29.91,ENE,66,11.5,11.5,91,0.00,OVC,,0.00,0.0,WeatherDisplay:10.37,2013-03-05 09:56:00,
2013-03-05 04:01:00,31.7,29.4,29.91,ENE,72,11.5,11.5,91,0.00,OVC,,0.00,0.0,WeatherDisplay:10.37,2013-03-05 10:01:00,
2013-03-05 04:06:00,31.7,29.4,29.91,ENE,76,12.7,12.7,91,0.00,OVC,,0.00,0.0,WeatherDisplay:10.37,2013-03-05 10:06:00,
2013-03-05 04:11:00,31.7,29.4,29.91,ESE,102,11.5,11.5,91,0.00,OVC,,0.00,0.0,WeatherDisplay:10.37,2013-03-05 10:11:00,
2013-03-05 04:16:00,31.7,29.4,29.91,ENE,74,11.5,11.5,91,0.00,OVC,,0.00,0.0,WeatherDisplay:10.37,2013-03-05 10:16:00,
2013-03-05 04:21:00,31.8,29.5,29.91,East,80,11.5,11.5,91,0.00,OVC,,0.00,0.0,WeatherDisplay:10.37,2013-03-05 10:21:00,
2013-03-05 04:26:00,31.7,29.4,29.91,ENE,78,11.5,11.5,91,0.00,OVC,,0.00,0.0,WeatherDisplay:10.37,2013-03-05 10:26:00,
2013-03-05 04:31:00,31.8,29.5,29.91,ENE,71,12.0,12.0,91,0.00,OVC,,0.00,0.0,WeatherDisplay:10.37,2013-03-05 10:31:00,
2013-03-05 04:36:00,31.8,29.5,29.91,East,80,11.5,11.5,91,0.00,OVC,,0.00,0.0,WeatherDisplay:10.37,2013-03-05 10:36:00,
2013-03-05 04:41:00,31.8,29.5,29.91,ENE,77,12.7,12.7,91,0.00,OVC,,0.00,0.0,WeatherDisplay:10.37,2013-03-05 10:41:00,
2013-03-05 04:46:00,31.9,29.6,29.91,East,82,12.7,12.7,91,0.00,OVC,,0.00,0.0,WeatherDisplay:10.37,2013-03-05 10:46:00,
2013-03-05 04:51:00,31.8,29.5,29.90,ENE,76,11.5,11.5,91,0.00,OVC,,0.00,0.0,WeatherDisplay:10.37,2013-03-05 10:51:00,
2013-03-05 04:56:00,31.9,29.6,29.91,ENE,73,11.5,11.5,91,0.00,OVC,,0.00,0.0,WeatherDisplay:10.37,2013-03-05 10:56:00,
2013-03-05 05:01:00,31.9,29.6,29.91,East,88,11.5,11.5,91,0.00,OVC,,0.00,0.0,WeatherDisplay:10.37,2013-03-05 11:01:00,
2013-03-05 05:06:00,31.9,29.6,29.91,East,82,10.4,10.4,91,0.00,OVC,,0.00,0.0,WeatherDisplay:10.37,2013-03-05 11:06:00,
2013-03-05 05:11:00,31.9,29.8,29.91,East,85,10.4,10.4,92,0.00,OVC,,0.00,0.0,WeatherDisplay:10.37,2013-03-05 11:11:00,
2013-03-05 05:16:00,31.9,29.8,29.91,East,93,11.5,11.5,92,0.00,OVC,,0.00,0.0,WeatherDisplay:10.37,2013-03-05 11:16:00,
2013-03-05 05:21:00,31.9,29.8,29.91,East,98,10.4,10.4,92,0.00,OVC,,0.00,0.0,WeatherDisplay:10.37,2013-03-05 11:21:00,
2013-03-05 05:26:00,31.9,29.8,29.91,East,96,9.2,9.2,92,0.00,OVC,,0.00,0.0,WeatherDisplay:10.37,2013-03-05 11:26:00,
2013-03-05 05:31:00,31.9,29.8,29.91,East,94,9.2,9.2,92,0.00,OVC,,0.00,0.0,WeatherDisplay:10.37,2013-03-05 11:31:00,
2013-03-05 05:36:00,32.0,29.9,29.91,East,91,9.2,9.2,92,0.00,OVC,,0.00,0.0,WeatherDisplay:10.37,2013-03-05 11:36:00,
2013-03-05 05:41:00,31.9,29.8,29.90,East,88,9.2,9.2,92,0.00,OVC,,0.00,0.0,WeatherDisplay:10.37,2013-03-05 11:41:00,
2013-03-05 05:46:00,32.0,29.9,29.90,East,88,7.0,7.0,92,0.00,OVC,,0.00,0.0,WeatherDisplay:10.37,2013-03-05 11:46:00,
2013-03-05 05:52:00,31.9,30.1,29.90,ENE,67,6.9,6.9,93,0.00,OVC,,0.00,0.0,WeatherDisplay:10.37,2013-03-05 11:52:00,
2013-03-05 05:57:00,32.0,30.2,29.90,ENE,69,6.9,6.9,93,0.00,OVC,,0.00,0.0,WeatherDisplay:10.37,2013-03-05 11:57:00,
2013-03-05 06:02:00,32.0,30.2,29.89,East,86,7.0,7.0,93,0.00,-RA,,0.00,0.0,WeatherDisplay:10.37,2013-03-05 12:02:00,
2013-03-05 06:07:00,32.0,30.2,29.89,East,84,8.1,8.1,93,0.00,-RA,,0.00,0.0,WeatherDisplay:10.37,2013-03-05 12:07:00,
2013-03-05 06:12:00,32.0,30.2,29.89,East,86,8.1,8.1,93,0.00,-RA,,0.00,0.0,WeatherDisplay:10.37,2013-03-05 12:12:00,
2013-03-05 06:17:00,32.1,30.3,29.88,East,86,10.4,10.4,93,0.00,-RA,,0.00,0.0,WeatherDisplay:10.37,2013-03-05 12:17:00,
2013-03-05 06:22:00,32.2,30.4,29.88,East,88,10.0,10.0,93,0.00,-RA,,0.00,0.0,WeatherDisplay:10.37,2013-03-05 12:22:00,
2013-03-05 06:27:00,32.3,30.2,29.88,East,98,10.4,10.4,92,0.00,-RA,,0.00,5.0,WeatherDisplay:10.37,2013-03-05 12:27:00,
2013-03-05 06:32:00,32.4,30.3,29.88,East,86,13.8,13.8,92,0.00,OVC,,0.00,7.0,WeatherDisplay:10.37,2013-03-05 12:32:00,
2013-03-05 06:37:00,32.4,30.3,29.88,East,85,13.8,13.8,92,0.00,OVC,,0.00,7.0,WeatherDisplay:10.37,2013-03-05 12:37:00,
2013-03-05 06:42:00,32.5,30.4,29.88,East,84,12.7,12.7,92,0.00,OVC,,0.00,7.0,WeatherDisplay:10.37,2013-03-05 12:42:00,
2013-03-05 06:47:00,32.5,30.4,29.88,ENE,75,13.8,13.8,92,0.00,OVC,,0.00,9.0,WeatherDisplay:10.37,2013-03-05 12:47:00,
2013-03-05 06:52:00,32.6,30.3,29.88,ESE,104,15.0,15.0,91,0.00,OVC,,0.00,12.0,WeatherDisplay:10.37,2013-03-05 12:52:00,
2013-03-05 06:57:00,32.7,30.4,29.87,East,82,12.7,12.7,91,0.00,OVC,,0.00,16.0,WeatherDisplay:10.37,2013-03-05 12:57:00,
2013-03-05 07:02:00,32.7,30.4,29.87,East,90,12.7,12.7,91,0.00,OVC,,0.00,25.0,WeatherDisplay:10.37,2013-03-05 13:02:00,
2013-03-05 07:07:00,32.8,30.5,29.87,East,96,12.7,12.7,91,0.00,OVC,,0.00,32.0,WeatherDisplay:10.37,2013-03-05 13:07:00,
2013-03-05 07:12:00,32.8,30.5,29.87,East,92,11.0,11.0,91,0.00,OVC,,0.00,32.0,WeatherDisplay:10.37,2013-03-05 13:12:00,
2013-03-05 07:17:00,32.9,30.6,29.88,East,99,11.5,11.5,91,0.00,OVC,,0.00,23.0,WeatherDisplay:10.37,2013-03-05 13:17:00,
2013-03-05 07:22:00,32.9,30.6,29.88,East,95,11.5,11.5,91,0.00,OVC,,0.00,21.0,WeatherDisplay:10.37,2013-03-05 13:22:00,
2013-03-05 07:27:00,32.9,30.6,29.88,East,94,11.5,11.5,91,0.00,OVC,,0.00,23.0,WeatherDisplay:10.37,2013-03-05 13:27:00,
2013-03-05 07:32:00,32.9,30.6,29.88,East,98,11.5,11.5,91,0.00,OVC,,0.00,23.0,WeatherDisplay:10.37,2013-03-05 13:32:00,
2013-03-05 07:37:00,32.9,30.6,29.88,East,96,10.4,10.4,91,0.00,OVC,,0.00,21.0,WeatherDisplay:10.37,2013-03-05 13:37:00,
2013-03-05 07:42:00,33.0,30.7,29.88,ESE,104,9.2,9.2,91,0.00,OVC,,0.00,19.0,WeatherDisplay:10.37,2013-03-05 13:42:00,
2013-03-05 07:47:00,32.9,30.6,29.88,East,97,9.2,9.2,91,0.00,-RA,,0.00,18.0,WeatherDisplay:10.37,2013-03-05 13:47:00,
2013-03-05 07:52:00,32.9,30.6,29.88,ENE,72,10.4,10.4,91,0.00,-RA,,0.00,18.0,WeatherDisplay:10.37,2013-03-05 13:52:00,
2013-03-05 07:57:00,32.8,30.5,29.88,East,87,9.2,9.2,91,0.00,-RA,,0.00,16.0,WeatherDisplay:10.37,2013-03-05 13:57:00,
2013-03-05 08:02:00,32.8,30.5,29.88,ESE,105,10.4,10.4,91,0.00,-DZ,,0.00,16.0,WeatherDisplay:10.37,2013-03-05 14:02:00,
2013-03-05 08:07:00,32.8,30.5,29.89,ESE,119,9.2,9.2,91,0.00,-DZ,,0.00,16.0,WeatherDisplay:10.37,2013-03-05 14:07:00,
2013-03-05 08:12:00,32.8,30.7,29.89,East,98,8.0,8.0,92,0.00,-DZ,,0.00,16.0,WeatherDisplay:10.37,2013-03-05 14:12:00,
2013-03-05 08:17:00,32.8,30.7,29.89,East,98,8.1,8.1,92,0.00,-DZ,,0.00,18.0,WeatherDisplay:10.37,2013-03-05 14:17:00,
2013-03-05 08:22:00,32.8,30.7,29.89,ESE,103,8.0,8.0,92,0.00,-DZ,,0.00,21.0,WeatherDisplay:10.37,2013-03-05 14:22:00,
2013-03-05 08:27:00,32.8,30.7,29.88,East,80,8.1,8.1,92,0.00,-DZ,,0.00,26.0,WeatherDisplay:10.37,2013-03-05 14:27:00,
2013-03-05 08:32:00,32.8,30.7,29.88,ESE,102,9.2,9.2,92,0.00,-RA,,0.00,26.0,WeatherDisplay:10.37,2013-03-05 14:32:00,
2013-03-05 08:37:00,32.8,30.7,29.88,East,87,11.5,11.5,92,0.00,-RA,,0.00,28.0,WeatherDisplay:10.37,2013-03-05 14:37:00,
2013-03-05 08:42:00,32.8,30.7,29.88,East,101,9.2,9.2,92,0.00,-RA,,0.00,28.0,WeatherDisplay:10.37,2013-03-05 14:42:00,
2013-03-05 08:47:00,32.7,30.6,29.88,East,96,10.4,10.4,92,0.00,-RA,,0.00,39.0,WeatherDisplay:10.37,2013-03-05 14:47:00,
2013-03-05 08:52:00,32.7,30.9,29.88,East,90,6.9,6.9,93,0.01,-RA,,0.01,42.0,WeatherDisplay:10.37,2013-03-05 14:52:00,
2013-03-05 08:57:00,32.7,30.9,29.87,East,94,10.4,10.4,93,0.01,-RA,,0.01,49.0,WeatherDisplay:10.37,2013-03-05 14:57:00,
2013-03-05 09:02:00,32.6,30.8,29.87,East,86,9.2,9.2,93,0.01,-RA,,0.01,51.0,WeatherDisplay:10.37,2013-03-05 15:02:00,
2013-03-05 09:07:00,32.6,30.8,29.87,East,87,10.4,10.4,93,0.01,-RA,,0.01,44.0,WeatherDisplay:10.37,2013-03-05 15:07:00,
2013-03-05 09:12:00,32.6,30.8,29.87,East,94,10.4,10.4,93,0.02,-RA,,0.02,49.0,WeatherDisplay:10.37,2013-03-05 15:12:00,
2013-03-05 09:17:00,32.6,31.1,29.87,East,100,9.2,9.2,94,0.02,-RA,,0.02,60.0,WeatherDisplay:10.37,2013-03-05 15:17:00,
2013-03-05 09:22:00,32.6,31.1,29.87,East,89,11.5,11.5,94,0.02,-RA,,0.02,74.0,WeatherDisplay:10.37,2013-03-05 15:22:00,
2013-03-05 09:27:00,32.6,31.1,29.86,East,92,10.4,10.4,94,0.02,-RA,,0.02,70.0,WeatherDisplay:10.37,2013-03-05 15:27:00,
2013-03-05 09:32:00,32.6,31.1,29.86,East,88,10.4,10.4,94,0.02,-SN,,0.02,76.0,WeatherDisplay:10.37,2013-03-05 15:32:00,
2013-03-05 09:37:00,32.5,31.0,29.86,East,84,9.2,9.2,94,0.02,-SN,,0.02,74.0,WeatherDisplay:10.37,2013-03-05 15:37:00,
2013-03-05 09:42:00,32.5,31.0,29.85,ENE,61,11.5,11.5,94,0.02,-SN,,0.02,79.0,WeatherDisplay:10.37,2013-03-05 15:42:00,
2013-03-05 09:47:00,32.5,31.0,29.85,East,96,9.2,9.2,94,0.02,-SN,,0.02,72.0,WeatherDisplay:10.37,2013-03-05 15:47:00,
2013-03-05 09:52:00,32.4,30.9,29.85,East,79,10.4,10.4,94,0.01,-SN,,0.02,72.0,WeatherDisplay:10.37,2013-03-05 15:52:00,
2013-03-05 09:57:00,32.4,30.9,29.84,ENE,76,8.1,8.1,94,0.02,-SN,,0.03,90.0,WeatherDisplay:10.37,2013-03-05 15:57:00,
2013-03-05 10:02:00,32.4,30.9,29.84,ENE,76,10.4,10.4,94,0.02,-SN,,0.03,95.0,WeatherDisplay:10.37,2013-03-05 16:02:00,
2013-03-05 10:07:00,32.4,30.9,29.84,ENE,67,9.2,9.2,94,0.02,-SN,,0.03,88.0,WeatherDisplay:10.37,2013-03-05 16:07:00,
2013-03-05 10:12:00,32.4,30.9,29.84,East,79,7.0,7.0,94,0.01,-SN,,0.03,84.0,WeatherDisplay:10.37,2013-03-05 16:12:00,
2013-03-05 10:17:00,32.4,30.9,29.84,East,80,9.2,9.2,94,0.01,-SN,,0.03,79.0,WeatherDisplay:10.37,2013-03-05 16:17:00,
2013-03-05 10:22:00,32.3,31.0,29.83,East,84,7.0,7.0,95,0.01,-SN,,0.03,88.0,WeatherDisplay:10.37,2013-03-05 16:22:00,
2013-03-05 10:27:00,32.3,31.0,29.83,ENE,67,5.8,5.8,95,0.02,-SN,,0.04,84.0,WeatherDisplay:10.37,2013-03-05 16:27:00,
2013-03-05 10:32:00,32.3,31.0,29.83,ENE,73,9.2,9.2,95,0.02,-SN,,0.04,93.0,WeatherDisplay:10.37,2013-03-05 16:32:00,
2013-03-05 10:37:00,32.3,31.0,29.83,ENE,57,8.1,8.1,95,0.02,-SN,,0.04,98.0,WeatherDisplay:10.37,2013-03-05 16:37:00,
2013-03-05 10:43:00,32.3,31.0,29.83,ENE,77,10.4,10.4,95,0.03,-SN,,0.05,104.0,WeatherDisplay:10.37,2013-03-05 16:43:00,
2013-03-05 10:48:00,32.3,31.0,29.82,East,85,9.2,9.2,95,0.03,-SN,,0.05,107.0,WeatherDisplay:10.37,2013-03-05 16:48:00,
2013-03-05 10:53:00,32.2,30.9,29.83,ENE,71,10.4,10.4,95,0.03,-SN,,0.05,91.0,WeatherDisplay:10.37,2013-03-05 16:53:00,
2013-03-05 10:58:00,32.2,30.9,29.83,East,86,8.0,8.0,95,0.02,-SN,,0.05,86.0,WeatherDisplay:10.37,2013-03-05 16:58:00,
2013-03-05 11:03:00,32.2,30.9,29.83,East,83,10.0,10.0,95,0.03,-SN,,0.06,90.0,WeatherDisplay:10.37,2013-03-05 17:03:00,
2013-03-05 11:08:00,32.2,30.9,29.82,ENE,77,9.2,9.2,95,0.03,-SN,,0.06,97.0,WeatherDisplay:10.37,2013-03-05 17:08:00,
2013-03-05 11:13:00,32.2,30.9,29.82,East,91,11.5,11.5,95,0.03,-SN,,0.06,91.0,WeatherDisplay:10.37,2013-03-05 17:13:00,
2013-03-05 11:18:00,32.2,30.9,29.82,ENE,73,6.9,6.9,95,0.04,-SN,,0.07,83.0,WeatherDisplay:10.37,2013-03-05 17:18:00,
2013-03-05 11:23:00,32.2,30.9,29.82,East,82,8.1,8.1,95,0.04,-SN,,0.07,97.0,WeatherDisplay:10.37,2013-03-05 17:23:00,
2013-03-05 11:28:00,32.2,30.9,29.82,East,81,7.0,7.0,95,0.04,-SN,,0.08,104.0,WeatherDisplay:10.37,2013-03-05 17:28:00,
2013-03-05 11:33:00,32.2,30.9,29.82,East,86,8.1,8.1,95,0.04,-SN,,0.08,105.0,WeatherDisplay:10.37,2013-03-05 17:33:00,
2013-03-05 11:38:00,32.2,30.9,29.82,East,87,6.9,6.9,95,0.05,-SN,,0.09,100.0,WeatherDisplay:10.37,2013-03-05 17:38:00,
2013-03-05 11:43:00,32.2,30.9,29.82,ENE,75,7.0,7.0,95,0.04,-SN,,0.09,107.0,WeatherDisplay:10.37,2013-03-05 17:43:00,
2013-03-05 11:48:00,32.4,31.1,29.82,ENE,71,9.2,9.2,95,0.04,-SN,,0.09,144.0,WeatherDisplay:10.37,2013-03-05 17:48:00,
2013-03-05 11:53:00,32.6,31.6,29.81,East,81,8.1,8.1,96,0.05,-SN,,0.10,186.0,WeatherDisplay:10.37,2013-03-05 17:53:00,
2013-03-05 11:58:00,32.9,31.9,29.81,East,88,10.4,10.4,96,0.06,-SN,,0.11,193.0,WeatherDisplay:10.37,2013-03-05 17:58:00,
2013-03-05 12:03:00,33.0,32.0,29.81,ENE,75,6.9,6.9,96,0.05,-SN,,0.11,169.0,WeatherDisplay:10.37,2013-03-05 18:03:00,
2013-03-05 12:08:00,33.2,32.2,29.81,ENE,60,6.9,6.9,96,0.06,-SN,,0.12,128.0,WeatherDisplay:10.37,2013-03-05 18:08:00,
2013-03-05 12:13:00,33.1,32.1,29.81,ENE,71,4.6,4.6,96,0.06,-SN,,0.12,90.0,WeatherDisplay:10.37,2013-03-05 18:13:00,
2013-03-05 12:18:00,33.0,32.0,29.81,ENE,73,6.9,6.9,96,0.05,-SN,,0.12,76.0,WeatherDisplay:10.37,2013-03-05 18:18:00,
2013-03-05 12:23:00,32.9,31.6,29.81,ENE,71,7.0,7.0,95,0.05,-SN,,0.12,90.0,WeatherDisplay:10.37,2013-03-05 18:23:00,
2013-03-05 12:28:00,33.0,31.7,29.81,ENE,74,6.9,6.9,95,0.05,-SN,,0.13,105.0,WeatherDisplay:10.37,2013-03-05 18:28:00,
2013-03-05 12:33:00,33.1,31.8,29.80,ENE,75,9.0,9.0,95,0.05,-SN,,0.13,146.0,WeatherDisplay:10.37,2013-03-05 18:33:00,
2013-03-05 12:38:00,33.2,31.9,29.80,ENE,72,6.9,6.9,95,0.04,-SN,,0.13,176.0,WeatherDisplay:10.37,2013-03-05 18:38:00,
2013-03-05 12:43:00,33.4,32.1,29.80,ENE,69,5.0,5.0,95,0.05,-SN,,0.14,195.0,WeatherDisplay:10.37,2013-03-05 18:43:00,
2013-03-05 12:48:00,33.5,32.2,29.80,ENE,70,8.1,8.1,95,0.05,-SN,,0.14,165.0,WeatherDisplay:10.37,2013-03-05 18:48:00,
2013-03-05 12:53:00,33.6,32.3,29.80,ENE,59,5.0,5.0,95,0.05,-SN,,0.15,137.0,WeatherDisplay:10.37,2013-03-05 18:53:00,
2013-03-05 12:58:00,33.5,32.2,29.79,ENE,61,3.5,0.0,95,0.05,-SN,,0.15,137.0,WeatherDisplay:10.37,2013-03-05 18:58:00,
2013-03-05 13:03:00,33.5,32.2,29.79,NE,55,6.9,6.9,95,0.04,-SN,,0.15,127.0,WeatherDisplay:10.37,2013-03-05 19:03:00,
2013-03-05 13:08:00,33.3,31.8,29.79,NE,48,5.8,5.8,94,0.04,-SN,,0.15,125.0,WeatherDisplay:10.37,2013-03-05 19:08:00,
2013-03-05 13:13:00,33.2,31.7,29.79,NE,47,6.0,6.0,94,0.04,-SN,,0.16,128.0,WeatherDisplay:10.37,2013-03-05 19:13:00,
2013-03-05 13:18:00,33.0,31.5,29.79,NE,53,5.8,5.8,94,0.04,-SN,,0.16,121.0,WeatherDisplay:10.37,2013-03-05 19:18:00,
2013-03-05 13:23:00,32.9,31.4,29.79,NE,49,5.8,5.8,94,0.04,-SN,,0.16,160.0,WeatherDisplay:10.37,2013-03-05 19:23:00,
2013-03-05 13:28:00,33.0,31.5,29.78,NE,34,5.0,5.0,94,0.04,-SN,,0.17,171.0,WeatherDisplay:10.37,2013-03-05 19:28:00,
2013-03-05 13:33:00,32.9,31.6,29.78,NNE,30,6.0,6.0,95,0.04,-SN,,0.17,134.0,WeatherDisplay:10.37,2013-03-05 19:33:00,
2013-03-05 13:38:00,32.7,31.2,29.78,NE,36,7.0,7.0,94,0.04,-SN,,0.17,121.0,WeatherDisplay:10.37,2013-03-05 19:38:00,
2013-03-05 13:43:00,32.5,31.0,29.78,NE,34,5.8,5.8,94,0.04,-SN,,0.17,114.0,WeatherDisplay:10.37,2013-03-05 19:43:00,
2013-03-05 13:48:00,32.3,30.8,29.78,NNE,26,5.8,5.8,94,0.04,-SN,,0.18,130.0,WeatherDisplay:10.37,2013-03-05 19:48:00,
2013-03-05 13:53:00,32.3,30.8,29.78,NNE,27,6.9,6.9,94,0.04,-SN,,0.18,158.0,WeatherDisplay:10.37,2013-03-05 19:53:00,
2013-03-05 13:58:00,32.2,30.7,29.78,NNE,26,9.2,9.2,94,0.03,-SN,,0.18,186.0,WeatherDisplay:10.37,2013-03-05 19:58:00,
2013-03-05 14:03:00,32.1,30.8,29.78,NE,37,8.1,8.1,95,0.03,-SN,,0.18,185.0,WeatherDisplay:10.37,2013-03-05 20:03:00,
2013-03-05 14:08:00,32.1,30.8,29.78,NNE,23,8.1,8.1,95,0.04,-SN,,0.19,162.0,WeatherDisplay:10.37,2013-03-05 20:08:00,
2013-03-05 14:13:00,32.1,30.8,29.78,NNE,25,8.1,8.1,95,0.03,-SN,,0.19,137.0,WeatherDisplay:10.37,2013-03-05 20:13:00,
2013-03-05 14:18:00,32.0,30.7,29.78,NNE,15,6.9,6.9,95,0.03,OVC,,0.19,135.0,WeatherDisplay:10.37,2013-03-05 20:18:00,
2013-03-05 14:23:00,31.9,30.6,29.78,NNE,24,8.1,8.1,95,0.03,OVC,,0.19,149.0,WeatherDisplay:10.37,2013-03-05 20:23:00,
2013-03-05 14:28:00,32.0,30.7,29.78,NNE,21,5.8,5.8,95,0.03,RA,,0.20,160.0,WeatherDisplay:10.37,2013-03-05 20:28:00,
2013-03-05 14:33:00,32.0,30.7,29.79,NNE,13,5.8,5.8,95,0.03,RA,,0.20,167.0,WeatherDisplay:10.37,2013-03-05 20:33:00,
2013-03-05 14:38:00,32.0,30.7,29.79,NNE,24,8.1,8.1,95,0.03,OVC,,0.21,167.0,WeatherDisplay:10.37,2013-03-05 20:38:00,
2013-03-05 14:43:00,32.0,30.7,29.79,NNE,23,6.9,6.9,95,0.04,RA,,0.21,162.0,WeatherDisplay:10.37,2013-03-05 20:43:00,
2013-03-05 14:48:00,32.1,30.8,29.79,NNE,25,6.9,6.9,95,0.03,-SN,,0.21,155.0,WeatherDisplay:10.37,2013-03-05 20:48:00,
2013-03-05 14:53:00,32.0,30.7,29.79,North,5,5.8,5.8,95,0.03,-SN,,0.21,151.0,WeatherDisplay:10.37,2013-03-05 20:53:00,
2013-03-05 14:58:00,32.0,30.7,29.79,North,5,6.9,6.9,95,0.04,-SN,,0.22,153.0,WeatherDisplay:10.37,2013-03-05 20:58:00,
2013-03-05 15:03:00,31.9,30.6,29.79,North,5,8.1,8.1,95,0.04,-SN,,0.22,156.0,WeatherDisplay:10.37,2013-03-05 21:03:00,
2013-03-05 15:08:00,31.7,30.4,29.79,North,11,9.2,9.2,95,0.04,-SN,,0.22,162.0,WeatherDisplay:10.37,2013-03-05 21:08:00,
2013-03-05 15:13:00,31.7,30.4,29.79,North,11,9.2,9.2,95,0.03,-SN,,0.22,155.0,WeatherDisplay:10.37,2013-03-05 21:13:00,
2013-03-05 15:18:00,31.7,30.4,29.79,North,360,6.0,6.0,95,0.03,-SN,,0.22,135.0,WeatherDisplay:10.37,2013-03-05 21:18:00,
2013-03-05 15:23:00,31.6,30.3,29.79,North,5,9.2,9.2,95,0.04,-SN,,0.23,121.0,WeatherDisplay:10.37,2013-03-05 21:23:00,
2013-03-05 15:28:00,31.6,30.3,29.79,North,360,7.0,7.0,95,0.03,-SN,,0.23,114.0,WeatherDisplay:10.37,2013-03-05 21:28:00,
2013-03-05 15:33:00,31.6,30.3,29.79,North,11,6.9,6.9,95,0.03,-SN,,0.23,98.0,WeatherDisplay:10.37,2013-03-05 21:33:00,
2013-03-05 15:38:00,31.6,30.3,29.79,North,360,9.2,9.2,95,0.03,-SN,,0.23,100.0,WeatherDisplay:10.37,2013-03-05 21:38:00,
2013-03-05 15:43:00,31.5,30.2,29.79,North,360,9.2,9.2,95,0.02,-SN,,0.23,95.0,WeatherDisplay:10.37,2013-03-05 21:43:00,
2013-03-05 15:49:00,31.5,30.2,29.80,North,5,9.2,9.2,95,0.02,-SN,,0.23,86.0,WeatherDisplay:10.37,2013-03-05 21:49:00,
2013-03-05 15:54:00,31.4,30.1,29.80,North,5,8.1,8.1,95,0.02,-SN,,0.23,79.0,WeatherDisplay:10.37,2013-03-05 21:54:00,
2013-03-05 15:59:00,31.4,30.1,29.80,North,5,6.9,6.9,95,0.02,-SN,,0.23,72.0,WeatherDisplay:10.37,2013-03-05 21:59:00,
2013-03-05 16:04:00,31.5,30.2,29.80,North,355,6.9,6.9,95,0.01,-SN,,0.23,70.0,WeatherDisplay:10.37,2013-03-05 22:04:00,
2013-03-05 16:09:00,31.4,30.1,29.80,NNE,17,11.5,11.5,95,0.02,-SN,,0.24,74.0,WeatherDisplay:10.37,2013-03-05 22:09:00,
2013-03-05 16:14:00,31.3,30.0,29.80,NNE,14,9.2,9.2,95,0.02,-SN,,0.24,69.0,WeatherDisplay:10.37,2013-03-05 22:14:00,
2013-03-05 16:19:00,31.3,30.0,29.80,North,360,6.9,6.9,95,0.02,-SN,,0.24,60.0,WeatherDisplay:10.37,2013-03-05 22:19:00,
2013-03-05 16:24:00,31.4,30.4,29.80,North,355,6.9,6.9,96,0.01,-SN,,0.24,47.0,WeatherDisplay:10.37,2013-03-05 22:24:00,
2013-03-05 16:29:00,31.2,29.9,29.80,North,355,10.4,10.4,95,0.01,-SN,,0.24,40.0,WeatherDisplay:10.37,2013-03-05 22:29:00,
2013-03-05 16:34:00,31.1,29.8,29.80,North,351,8.1,8.1,95,0.01,-SN,,0.24,37.0,WeatherDisplay:10.37,2013-03-05 22:34:00,
2013-03-05 16:39:00,31.1,30.1,29.80,North,350,9.2,9.2,96,0.01,-SN,,0.24,30.0,WeatherDisplay:10.37,2013-03-05 22:39:00,
2013-03-05 16:44:00,31.0,30.0,29.80,North,5,11.5,11.5,96,0.01,-SN,,0.24,28.0,WeatherDisplay:10.37,2013-03-05 22:44:00,
2013-03-05 16:49:00,30.8,29.8,29.81,North,360,11.5,11.5,96,0.01,-SN,,0.24,28.0,WeatherDisplay:10.37,2013-03-05 22:49:00,
2013-03-05 16:54:00,30.6,29.3,29.81,North,5,12.7,12.7,95,0.02,-SN,,0.25,26.0,WeatherDisplay:10.37,2013-03-05 22:54:00,
2013-03-05 16:59:00,30.5,29.5,29.81,North,5,12.7,12.7,96,0.02,-SN,,0.25,23.0,WeatherDisplay:10.37,2013-03-05 22:59:00,
2013-03-05 17:04:00,30.4,29.4,29.81,North,11,15.0,15.0,96,0.02,-SN,,0.25,19.0,WeatherDisplay:10.37,2013-03-05 23:04:00,
2013-03-05 17:09:00,30.2,29.2,29.81,North,5,12.7,12.7,96,0.01,-SN,,0.25,18.0,WeatherDisplay:10.37,2013-03-05 23:09:00,
2013-03-05 17:14:00,30.0,29.0,29.81,North,5,12.0,12.0,96,0.01,-SN,,0.25,14.0,WeatherDisplay:10.37,2013-03-05 23:14:00,
2013-03-05 17:19:00,29.9,28.9,29.82,NNE,17,13.8,13.8,96,0.01,-SN,,0.25,11.0,WeatherDisplay:10.37,2013-03-05 23:19:00,
2013-03-05 17:24:00,29.9,28.9,29.82,North,5,11.5,11.5,96,0.01,-SN,,0.25,9.0,WeatherDisplay:10.37,2013-03-05 23:24:00,
2013-03-05 17:29:00,29.7,28.7,29.82,North,360,13.8,13.8,96,0.01,-SN,,0.26,5.0,WeatherDisplay:10.37,2013-03-05 23:29:00,
2013-03-05 17:34:00,29.4,28.4,29.82,North,11,15.0,15.0,96,0.02,-SN,,0.26,0.0,WeatherDisplay:10.37,2013-03-05 23:34:00,
2013-03-05 17:39:00,29.2,28.2,29.82,NNE,16,15.0,15.0,96,0.03,-SN,,0.27,0.0,WeatherDisplay:10.37,2013-03-05 23:39:00,
2013-03-05 17:44:00,29.2,28.2,29.82,NNE,15,14.0,14.0,96,0.04,-SN,,0.28,0.0,WeatherDisplay:10.37,2013-03-05 23:44:00,
2013-03-05 17:49:00,29.1,28.1,29.83,NNE,13,12.7,12.7,96,0.04,-SN,,0.28,0.0,WeatherDisplay:10.37,2013-03-05 23:49:00,
2013-03-05 17:54:00,29.0,28.0,29.83,NNE,17,12.0,12.0,96,0.05,-SN,,0.29,0.0,WeatherDisplay:10.37,2013-03-05 23:54:00,
2013-03-05 17:59:00,29.0,28.0,29.83,North,11,13.0,13.0,96,0.04,-SN,,0.29,0.0,WeatherDisplay:10.37,2013-03-05 23:59:00,
2013-03-05 18:04:00,28.9,27.9,29.83,North,5,16.1,16.1,96,0.04,-SN,,0.29,0.0,WeatherDisplay:10.37,2013-03-06 00:04:00,
2013-03-05 18:09:00,28.7,27.7,29.83,North,5,18.4,18.4,96,0.04,-SN,,0.30,0.0,WeatherDisplay:10.37,2013-03-06 00:09:00,
2013-03-05 18:14:00,28.6,27.4,29.83,NNE,22,19.6,19.6,95,0.05,-SN,,0.30,0.0,WeatherDisplay:10.37,2013-03-06 00:14:00,
2013-03-05 18:19:00,28.5,27.3,29.84,North,360,15.0,15.0,95,0.05,-SN,,0.30,0.0,WeatherDisplay:10.37,2013-03-06 00:19:00,
2013-03-05 18:24:00,28.5,27.3,29.84,NNE,15,15.0,15.0,95,0.05,-SN,,0.30,0.0,WeatherDisplay:10.37,2013-03-06 00:24:00,
2013-03-05 18:29:00,28.5,27.3,29.84,North,5,13.8,13.8,95,0.05,-SN,,0.30,0.0,WeatherDisplay:10.37,2013-03-06 00:29:00,
2013-03-05 18:34:00,28.5,27.5,29.84,NNE,22,16.1,16.1,96,0.04,-SN,,0.30,0.0,WeatherDisplay:10.37,2013-03-06 00:34:00,
2013-03-05 18:39:00,28.4,27.2,29.85,NNE,19,15.0,15.0,95,0.03,-SN,,0.30,0.0,WeatherDisplay:10.37,2013-03-06 00:39:00,
2013-03-05 18:44:00,28.4,27.2,29.85,NNE,13,13.0,13.0,95,0.02,-SN,,0.30,0.0,WeatherDisplay:10.37,2013-03-06 00:44:00,
2013-03-05 18:49:00,28.4,27.2,29.85,NNE,15,17.3,17.3,95,0.02,-SN,,0.30,0.0,WeatherDisplay:10.37,2013-03-06 00:49:00,
2013-03-05 18:54:00,28.4,27.4,29.85,NNE,13,15.0,15.0,96,0.01,-SN,,0.30,0.0,WeatherDisplay:10.37,2013-03-06 00:54:00,
2013-03-05 18:59:00,28.4,27.4,29.85,North,11,15.0,15.0,96,0.01,-SN,,0.30,0.0,WeatherDisplay:10.37,2013-03-06 00:59:00,
2013-03-05 19:04:00,28.4,27.4,29.85,North,9,14.0,14.0,96,0.01,-SN,,0.30,0.0,WeatherDisplay:10.37,2013-03-06 01:04:00,
2013-03-05 19:09:00,28.3,27.3,29.85,NNE,17,18.4,18.4,96,0.01,-SN,,0.30,0.0,WeatherDisplay:10.37,2013-03-06 01:09:00,
2013-03-05 19:14:00,28.3,27.3,29.85,NNE,13,16.1,16.1,96,0.01,-SN,,0.31,0.0,WeatherDisplay:10.37,2013-03-06 01:14:00,
2013-03-05 19:19:00,28.3,27.3,29.86,North,5,16.1,16.1,96,0.02,-SN,,0.32,0.0,WeatherDisplay:10.37,2013-03-06 01:19:00,
2013-03-05 19:24:00,28.4,27.4,29.86,North,5,15.0,15.0,96,0.03,-SN,,0.33,0.0,WeatherDisplay:10.37,2013-03-06 01:24:00,
2013-03-05 19:29:00,28.4,27.4,29.86,North,5,12.7,12.7,96,0.04,-SN,,0.34,0.0,WeatherDisplay:10.37,2013-03-06 01:29:00,
2013-03-05 19:34:00,28.4,27.4,29.86,North,360,11.5,11.5,96,0.05,-SN,,0.35,0.0,WeatherDisplay:10.37,2013-03-06 01:34:00,
2013-03-05 19:39:00,28.4,27.4,29.87,North,351,10.4,10.4,96,0.06,-SN,,0.36,0.0,WeatherDisplay:10.37,2013-03-06 01:39:00,
2013-03-05 19:44:00,28.5,27.5,29.87,North,350,11.5,11.5,96,0.06,-SN,,0.37,0.0,WeatherDisplay:10.37,2013-03-06 01:44:00,
2013-03-05 19:49:00,28.6,27.6,29.87,North,360,12.7,12.7,96,0.07,-SN,,0.37,0.0,WeatherDisplay:10.37,2013-03-06 01:49:00,
2013-03-05 19:54:00,28.7,27.7,29.87,North,5,12.0,12.0,96,0.08,-SN,,0.38,0.0,WeatherDisplay:10.37,2013-03-06 01:54:00,
2013-03-05 19:59:00,28.7,27.7,29.87,North,355,12.0,12.0,96,0.08,-SN,,0.39,0.0,WeatherDisplay:10.37,2013-03-06 01:59:00,
2013-03-05 20:04:00,28.7,27.7,29.88,North,350,11.5,11.5,96,0.09,-SN,,0.39,0.0,WeatherDisplay:10.37,2013-03-06 02:04:00,
2013-03-05 20:09:00,28.7,27.7,29.88,NNW,334,11.5,11.5,96,0.09,-SN,,0.39,0.0,WeatherDisplay:10.37,2013-03-06 02:09:00,
2013-03-05 20:14:00,28.7,27.7,29.88,NNW,344,10.4,10.4,96,0.09,-SN,,0.40,0.0,WeatherDisplay:10.37,2013-03-06 02:14:00,
2013-03-05 20:19:00,28.7,27.7,29.89,NNW,331,11.5,11.5,96,0.08,-SN,,0.40,0.0,WeatherDisplay:10.37,2013-03-06 02:19:00,
2013-03-05 20:24:00,28.8,27.8,29.89,NNW,329,12.7,12.7,96,0.08,-SN,,0.41,0.0,WeatherDisplay:10.37,2013-03-06 02:24:00,
2013-03-05 20:29:00,28.7,27.7,29.89,NW,324,11.5,11.5,96,0.07,-SN,,0.41,0.0,WeatherDisplay:10.37,2013-03-06 02:29:00,
2013-03-05 20:34:00,28.8,27.8,29.89,NNW,343,12.7,12.7,96,0.06,OVC,,0.41,0.0,WeatherDisplay:10.37,2013-03-06 02:34:00,
2013-03-05 20:39:00,28.8,27.8,29.89,NNW,331,11.5,11.5,96,0.05,OVC,,0.41,0.0,WeatherDisplay:10.37,2013-03-06 02:39:00,
2013-03-05 20:44:00,28.8,27.8,29.89,NNW,327,13.8,13.8,96,0.06,RA,,0.42,0.0,WeatherDisplay:10.37,2013-03-06 02:44:00,
2013-03-05 20:49:00,28.9,27.9,29.90,NW,313,12.7,12.7,96,0.05,-SN,,0.42,0.0,WeatherDisplay:10.37,2013-03-06 02:49:00,
2013-03-05 20:54:00,29.0,28.0,29.90,NW,325,15.0,15.0,96,0.04,-SN,,0.42,0.0,WeatherDisplay:10.37,2013-03-06 02:54:00,
2013-03-05 20:59:00,29.0,28.0,29.90,NW,322,13.8,13.8,96,0.04,-SN,,0.42,0.0,WeatherDisplay:10.37,2013-03-06 02:59:00,
2013-03-05 21:04:00,29.0,28.0,29.90,NW,323,11.0,11.0,96,0.03,-SN,,0.42,0.0,WeatherDisplay:10.37,2013-03-06 03:04:00,
2013-03-05 21:09:00,29.0,28.0,29.91,NNW,336,11.0,11.0,96,0.03,-SN,,0.42,0.0,WeatherDisplay:10.37,2013-03-06 03:09:00,
2013-03-05 21:14:00,29.0,28.0,29.91,NW,321,11.5,11.5,96,0.02,-SN,,0.42,0.0,WeatherDisplay:10.37,2013-03-06 03:14:00,
2013-03-05 21:19:00,29.1,28.1,29.91,NNW,338,13.8,13.8,96,0.02,-SN,,0.42,0.0,WeatherDisplay:10.37,2013-03-06 03:19:00,
2013-03-05 21:25:00,29.2,28.2,29.91,NNW,329,11.5,11.5,96,0.02,-SN,,0.43,0.0,WeatherDisplay:10.37,2013-03-06 03:25:00,
2013-03-05 21:30:00,29.3,28.3,29.91,NNW,331,11.5,11.5,96,0.03,-SN,,0.44,0.0,WeatherDisplay:10.37,2013-03-06 03:30:00,
2013-03-05 21:35:00,29.3,28.3,29.92,NNW,327,10.4,10.4,96,0.04,-SN,,0.45,0.0,WeatherDisplay:10.37,2013-03-06 03:35:00,
2013-03-05 21:40:00,29.4,28.4,29.92,NNW,327,11.5,11.5,96,0.05,-SN,,0.46,0.0,WeatherDisplay:10.37,2013-03-06 03:40:00,
2013-03-05 21:45:00,29.4,28.4,29.92,NW,319,12.7,12.7,96,0.04,-SN,,0.46,0.0,WeatherDisplay:10.37,2013-03-06 03:45:00,
2013-03-05 21:50:00,29.6,28.6,29.92,NNW,346,13.8,13.8,96,0.05,-SN,,0.47,0.0,WeatherDisplay:10.37,2013-03-06 03:50:00,
2013-03-05 21:55:00,29.7,28.7,29.92,NNW,345,13.8,13.8,96,0.06,-SN,,0.48,0.0,WeatherDisplay:10.37,2013-03-06 03:55:00,
2013-03-05 22:00:00,29.8,28.8,29.92,North,350,13.8,13.8,96,0.06,-SN,,0.48,0.0,WeatherDisplay:10.37,2013-03-06 04:00:00,
2013-03-05 22:05:00,29.8,28.8,29.92,North,360,15.0,15.0,96,0.07,-SN,,0.49,0.0,WeatherDisplay:10.37,2013-03-06 04:05:00,
2013-03-05 22:10:00,29.8,28.8,29.93,NNW,346,13.0,13.0,96,0.07,-SN,,0.49,0.0,WeatherDisplay:10.37,2013-03-06 04:10:00,
2013-03-05 22:15:00,29.8,28.8,29.93,North,355,12.7,12.7,96,0.08,-SN,,0.50,0.0,WeatherDisplay:10.37,2013-03-06 04:15:00,
2013-03-05 22:20:00,29.8,28.8,29.93,North,355,10.4,10.4,96,0.08,-SN,,0.50,0.0,WeatherDisplay:10.37,2013-03-06 04:20:00,
2013-03-05 22:25:00,29.9,28.9,29.93,NNW,344,11.5,11.5,96,0.07,-SN,,0.51,0.0,WeatherDisplay:10.37,2013-03-06 04:25:00,
2013-03-05 22:30:00,29.9,28.9,29.94,NNW,344,11.5,11.5,96,0.07,-SN,,0.51,0.0,WeatherDisplay:10.37,2013-03-06 04:30:00,
2013-03-05 22:35:00,29.9,28.9,29.94,North,355,12.7,12.7,96,0.06,-SN,,0.51,0.0,WeatherDisplay:10.37,2013-03-06 04:35:00,
2013-03-05 22:40:00,29.9,28.9,29.94,NNW,336,10.4,10.4,96,0.06,-SN,,0.51,0.0,WeatherDisplay:10.37,2013-03-06 04:40:00,
2013-03-05 22:45:00,29.9,28.9,29.94,North,355,11.5,11.5,96,0.05,-SN,,0.51,0.0,WeatherDisplay:10.37,2013-03-06 04:45:00,
2013-03-05 22:50:00,29.9,28.9,29.94,North,351,13.8,13.8,96,0.04,-SN,,0.51,0.0,WeatherDisplay:10.37,2013-03-06 04:50:00,
2013-03-05 22:55:00,29.9,28.9,29.94,North,355,15.0,15.0,96,0.03,-SN,,0.51,0.0,WeatherDisplay:10.37,2013-03-06 04:55:00,
2013-03-05 23:00:00,29.9,28.9,29.95,NNW,344,12.0,12.0,96,0.03,-SN,,0.51,0.0,WeatherDisplay:10.37,2013-03-06 05:00:00,
2013-03-05 23:05:00,29.9,28.9,29.95,NW,318,13.8,13.8,96,0.02,-SN,,0.51,0.0,WeatherDisplay:10.37,2013-03-06 05:05:00,
2013-03-05 23:10:00,29.9,28.9,29.95,NNW,330,13.8,13.8,96,0.02,-SN,,0.51,0.0,WeatherDisplay:10.37,2013-03-06 05:10:00,
2013-03-05 23:15:00,30.0,29.0,29.95,NNW,329,12.7,12.7,96,0.01,-SN,,0.51,0.0,WeatherDisplay:10.37,2013-03-06 05:15:00,
2013-03-05 23:20:00,30.0,29.0,29.95,NW,319,12.7,12.7,96,0.01,-SN,,0.51,0.0,WeatherDisplay:10.37,2013-03-06 05:20:00,
2013-03-05 23:25:00,30.1,29.1,29.95,NW,320,11.5,11.5,96,0.01,-SN,,0.51,0.0,WeatherDisplay:10.37,2013-03-06 05:25:00,
2013-03-05 23:30:00,30.0,29.0,29.95,NW,321,10.4,10.4,96,0.00,-SN,,0.51,0.0,WeatherDisplay:10.37,2013-03-06 05:30:00,
2013-03-05 23:35:00,30.0,29.0,29.96,NW,321,11.5,11.5,96,0.00,-SN,,0.51,0.0,WeatherDisplay:10.37,2013-03-06 05:35:00,
2013-03-05 23:40:00,30.0,29.0,29.95,NW,306,11.5,11.5,96,0.00,-SN,,0.51,0.0,WeatherDisplay:10.37,2013-03-06 05:40:00,
2013-03-05 23:45:00,29.8,28.8,29.96,WNW,298,10.4,10.4,96,0.00,-SN,,0.51,0.0,WeatherDisplay:10.37,2013-03-06 05:45:00,
2013-03-05 23:50:00,29.3,28.3,29.96,NW,326,13.8,13.8,96,0.02,-SN,,0.53,0.0,WeatherDisplay:10.37,2013-03-06 05:50:00,
2013-03-05 23:55:00,29.0,28.0,29.96,NW,324,12.7,12.7,96,0.04,-SN,,0.55,0.0,WeatherDisplay:10.37,2013-03-06 05:55:00,